createdAt,value
2023-04-17T00:00:39.186Z,26.40
2023-04-17T00:03:07.599Z,26.30
2023-04-17T00:05:36.414Z,26.30
2023-04-17T00:08:04.662Z,26.20
2023-04-17T00:10:34.788Z,26.20
2023-04-17T00:13:03.284Z,26.30
2023-04-17T00:15:31.369Z,26.30
2023-04-17T00:17:59.840Z,26.20
2023-04-17T00:20:28.610Z,26.20
2023-04-17T00:22:56.866Z,26.20
2023-04-17T00:25:25.383Z,26.20
2023-04-17T00:27:53.713Z,26.20
2023-04-17T00:30:21.938Z,26.20
2023-04-17T00:32:50.121Z,26.20
2023-04-17T00:35:18.512Z,26.30
2023-04-17T00:37:46.670Z,26.20
2023-04-17T00:40:15.132Z,26.20
2023-04-17T00:42:43.511Z,26.20
2023-04-17T00:45:11.657Z,26.20
2023-04-17T00:47:40.409Z,26.20
2023-04-17T00:50:09.358Z,26.10
2023-04-17T00:52:37.428Z,26.10
2023-04-17T00:55:06.176Z,26.10
2023-04-17T00:57:35.486Z,26.00
2023-04-17T01:00:03.934Z,26.10
2023-04-17T01:02:32.468Z,26.10
2023-04-17T01:05:00.838Z,26.00
2023-04-17T01:07:30.195Z,26.00
2023-04-17T01:09:58.547Z,26.10
2023-04-17T01:12:27.056Z,26.10
2023-04-17T01:14:56.529Z,26.00
2023-04-17T01:17:26.056Z,26.00
2023-04-17T01:19:55.175Z,26.00
2023-04-17T01:22:23.475Z,26.00
2023-04-17T01:24:56.422Z,26.00
2023-04-17T01:27:27.516Z,26.00
2023-04-17T01:29:56.378Z,26.00
2023-04-17T01:32:24.491Z,26.00
2023-04-17T01:34:52.920Z,26.00
2023-04-17T01:37:21.093Z,26.00
2023-04-17T01:39:49.663Z,26.00
2023-04-17T01:42:17.756Z,26.00
2023-04-17T01:44:45.955Z,26.10
2023-04-17T01:47:14.532Z,26.10
2023-04-17T01:49:42.594Z,26.10
2023-04-17T01:52:10.996Z,26.10
2023-04-17T01:54:39.164Z,26.00
2023-04-17T01:57:07.222Z,26.00
2023-04-17T01:59:35.551Z,26.00
2023-04-17T02:02:04.352Z,26.00
2023-04-17T02:04:32.887Z,26.00
2023-04-17T02:07:00.953Z,25.90
2023-04-17T02:09:29.098Z,25.90
2023-04-17T02:11:57.340Z,25.90
2023-04-17T02:14:25.878Z,25.90
2023-04-17T02:16:55.469Z,25.80
2023-04-17T02:19:23.793Z,25.70
2023-04-17T02:21:52.233Z,25.70
2023-04-17T02:24:20.490Z,25.60
2023-04-17T02:26:48.561Z,25.60
2023-04-17T02:29:16.827Z,25.60
2023-04-17T02:31:45.103Z,25.60
2023-04-17T02:34:13.395Z,25.60
2023-04-17T02:36:42.543Z,25.60
2023-04-17T02:39:10.970Z,25.60
2023-04-17T02:41:40.939Z,25.60
2023-04-17T02:44:10.381Z,25.50
2023-04-17T02:46:38.922Z,25.50
2023-04-17T02:49:09.473Z,25.50
2023-04-17T02:51:38.672Z,25.40
2023-04-17T02:54:06.936Z,25.40
2023-04-17T02:56:35.119Z,25.40
2023-04-17T02:59:03.586Z,25.50
2023-04-17T03:01:31.960Z,25.50
2023-04-17T03:04:00.434Z,25.40
2023-04-17T03:06:29.052Z,25.40
2023-04-17T03:08:57.542Z,25.50
2023-04-17T03:11:25.880Z,25.50
2023-04-17T03:13:54.164Z,25.50
2023-04-17T03:16:23.261Z,25.50
2023-04-17T03:18:51.771Z,25.60
2023-04-17T03:21:20.641Z,25.60
2023-04-17T03:23:50.403Z,25.50
2023-04-17T03:26:21.128Z,25.60
2023-04-17T03:28:49.623Z,25.50
2023-04-17T03:31:18.126Z,25.50
2023-04-17T03:33:46.508Z,25.50
2023-04-17T03:36:14.714Z,25.50
2023-04-17T03:38:43.195Z,25.50
2023-04-17T03:41:11.421Z,25.50
2023-04-17T03:43:39.771Z,25.40
2023-04-17T03:46:10.366Z,25.50
2023-04-17T03:48:39.943Z,25.50
2023-04-17T03:51:08.216Z,25.50
2023-04-17T03:53:37.440Z,25.50
2023-04-17T03:56:09.144Z,25.50
2023-04-17T03:58:40.725Z,25.50
2023-04-17T04:01:11.768Z,25.40
2023-04-17T04:03:49.048Z,25.40
2023-04-17T04:06:17.710Z,25.40
2023-04-17T04:08:45.959Z,25.40
2023-04-17T04:11:14.839Z,25.40
2023-04-17T04:13:43.069Z,25.40
2023-04-17T04:16:11.407Z,25.50
2023-04-17T04:18:41.521Z,25.40
2023-04-17T04:21:09.852Z,25.40
2023-04-17T04:23:41.379Z,25.50
2023-04-17T04:26:12.277Z,25.40
2023-04-17T04:28:49.846Z,25.40
2023-04-17T04:31:32.722Z,25.40
2023-04-17T04:34:03.511Z,25.40
2023-04-17T04:36:31.751Z,25.40
2023-04-17T04:39:17.360Z,25.40
2023-04-17T04:41:45.717Z,25.40
2023-04-17T04:44:15.130Z,25.40
2023-04-17T04:46:44.798Z,25.40
2023-04-17T04:49:14.006Z,25.40
2023-04-17T04:51:42.584Z,25.40
2023-04-17T04:54:11.224Z,25.40
2023-04-17T04:56:49.790Z,25.40
2023-04-17T04:59:18.324Z,25.40
2023-04-17T05:01:56.025Z,25.40
2023-04-17T05:04:25.050Z,25.40
2023-04-17T05:06:56.934Z,25.40
2023-04-17T05:09:25.358Z,25.40
2023-04-17T05:11:56.922Z,25.40
2023-04-17T05:14:25.427Z,25.40
2023-04-17T05:16:53.588Z,25.40
2023-04-17T05:19:22.207Z,25.40
2023-04-17T05:22:03.643Z,25.40
2023-04-17T05:24:35.647Z,25.40
2023-04-17T05:27:04.029Z,25.40
2023-04-17T05:29:32.189Z,25.40
2023-04-17T05:32:00.506Z,25.40
2023-04-17T05:34:49.240Z,25.30
2023-04-17T05:37:22.407Z,25.40
2023-04-17T05:39:50.771Z,25.40
2023-04-17T05:42:18.958Z,25.40
2023-04-17T05:44:47.270Z,25.30
2023-04-17T05:47:15.735Z,25.30
2023-04-17T05:49:43.775Z,25.40
2023-04-17T05:52:12.303Z,25.30
2023-04-17T05:54:44.049Z,25.30
2023-04-17T05:57:12.425Z,25.30
2023-04-17T05:59:40.831Z,25.30
2023-04-17T06:02:10.540Z,25.30
2023-04-17T06:04:39.192Z,25.30
2023-04-17T06:07:07.771Z,25.30
2023-04-17T06:09:37.400Z,25.20
2023-04-17T06:12:06.238Z,25.20
2023-04-17T06:14:34.849Z,25.20
2023-04-17T06:17:07.474Z,25.20
2023-04-17T06:19:35.869Z,25.20
2023-04-17T06:22:04.463Z,25.20
2023-04-17T06:24:32.697Z,25.10
2023-04-17T06:27:00.886Z,25.20
2023-04-17T06:29:29.233Z,25.10
2023-04-17T06:31:57.558Z,25.10
2023-04-17T06:34:26.772Z,25.10
2023-04-17T06:36:57.134Z,25.10
2023-04-17T06:39:25.411Z,25.00
2023-04-17T06:41:54.122Z,25.00
2023-04-17T06:44:27.993Z,25.00
2023-04-17T06:46:56.208Z,25.10
2023-04-17T06:49:25.017Z,25.10
2023-04-17T06:51:53.098Z,25.10
2023-04-17T06:54:21.292Z,25.10
2023-04-17T06:56:49.432Z,25.10
2023-04-17T06:59:18.589Z,25.00
2023-04-17T07:01:46.875Z,25.10
2023-04-17T07:04:15.276Z,25.10
2023-04-17T07:06:43.459Z,25.10
2023-04-17T07:09:12.067Z,25.10
2023-04-17T07:11:40.397Z,25.10
2023-04-17T07:14:09.880Z,25.20
2023-04-17T07:16:39.251Z,25.20
2023-04-17T07:19:07.430Z,25.20
2023-04-17T07:21:35.882Z,25.30
2023-04-17T07:24:04.264Z,25.30
2023-04-17T07:26:32.394Z,25.30
2023-04-17T07:29:00.665Z,25.40
2023-04-17T07:31:29.897Z,25.40
2023-04-17T07:33:58.114Z,25.40
2023-04-17T07:36:26.269Z,25.40
2023-04-17T07:38:54.545Z,25.40
2023-04-17T07:41:22.896Z,25.40
2023-04-17T07:43:51.272Z,25.40
2023-04-17T07:46:19.427Z,25.40
2023-04-17T07:48:47.871Z,25.50
2023-04-17T07:51:16.042Z,25.50
2023-04-17T07:53:44.293Z,25.50
2023-04-17T07:56:12.732Z,25.60
2023-04-17T07:58:41.040Z,25.60
2023-04-17T08:01:09.193Z,25.60
2023-04-17T08:03:37.598Z,25.60
2023-04-17T08:06:06.447Z,25.60
2023-04-17T08:08:34.559Z,25.60
2023-04-17T08:11:02.772Z,25.60
2023-04-17T08:13:31.855Z,25.70
2023-04-17T08:15:59.965Z,25.70
2023-04-17T08:18:28.223Z,25.70
2023-04-17T08:20:56.666Z,25.70
2023-04-17T08:23:25.110Z,25.70
2023-04-17T08:25:53.315Z,25.70
2023-04-17T08:28:21.613Z,25.70
2023-04-17T08:30:49.949Z,25.80
2023-04-17T08:33:18.617Z,25.80
2023-04-17T08:35:47.063Z,25.80
2023-04-17T08:38:15.858Z,25.90
2023-04-17T08:40:44.561Z,25.90
2023-04-17T08:43:17.134Z,25.90
2023-04-17T08:45:49.323Z,26.00
2023-04-17T08:48:17.291Z,25.90
2023-04-17T08:50:48.728Z,26.00
2023-04-17T08:53:20.565Z,26.00
2023-04-17T08:55:49.156Z,26.10
2023-04-17T08:58:17.372Z,26.10
2023-04-17T09:00:46.510Z,26.20
2023-04-17T09:03:15.782Z,26.20
2023-04-17T09:05:44.715Z,26.20
2023-04-17T09:08:18.225Z,26.30
2023-04-17T09:10:48.455Z,26.30
2023-04-17T09:13:20.046Z,26.30
2023-04-17T09:16:04.483Z,26.30
2023-04-17T09:18:34.663Z,26.30
2023-04-17T09:21:04.250Z,26.40
2023-04-17T09:23:47.474Z,26.40
2023-04-17T09:26:18.356Z,26.40
2023-04-17T09:29:12.540Z,26.50
2023-04-17T09:31:44.515Z,26.50
2023-04-17T09:34:13.883Z,26.60
2023-04-17T09:36:43.915Z,26.50
2023-04-17T09:39:20.064Z,26.60
2023-04-17T09:41:48.452Z,26.60
2023-04-17T09:44:28.426Z,26.60
2023-04-17T09:46:57.272Z,26.70
2023-04-17T09:49:43.031Z,26.80
2023-04-17T09:52:14.666Z,26.90
2023-04-17T09:54:43.729Z,26.90
2023-04-17T09:57:12.680Z,26.90
2023-04-17T09:59:46.151Z,26.90
2023-04-17T10:02:16.024Z,26.90
2023-04-17T10:04:45.737Z,27.00
2023-04-17T10:07:14.267Z,27.00
2023-04-17T10:09:43.582Z,27.10
2023-04-17T10:12:15.026Z,27.20
2023-04-17T10:14:46.136Z,27.20
2023-04-17T10:17:24.494Z,27.20
2023-04-17T10:19:53.046Z,27.20
2023-04-17T10:22:21.136Z,27.30
2023-04-17T10:24:50.802Z,27.40
2023-04-17T10:27:27.835Z,27.40
2023-04-17T10:30:00.817Z,27.40
2023-04-17T10:32:30.450Z,27.60
2023-04-17T10:35:00.918Z,27.60
2023-04-17T10:37:47.811Z,27.70
2023-04-17T10:40:21.813Z,27.70
2023-04-17T10:43:11.509Z,27.80
2023-04-17T10:46:10.605Z,27.80
2023-04-17T10:48:53.000Z,27.90
2023-04-17T10:51:24.288Z,28.00
2023-04-17T10:53:59.190Z,28.00
2023-04-17T10:56:40.379Z,28.10
2023-04-17T10:59:13.947Z,28.20
2023-04-17T11:01:51.649Z,28.20
2023-04-17T11:04:23.874Z,28.10
2023-04-17T11:06:52.303Z,28.20
2023-04-17T11:09:28.541Z,28.20
2023-04-17T11:12:00.709Z,28.30
2023-04-17T11:14:29.086Z,28.40
2023-04-17T11:16:57.311Z,28.50
2023-04-17T11:19:26.593Z,28.50
2023-04-17T11:21:56.477Z,28.60
2023-04-17T11:24:29.029Z,28.60
2023-04-17T11:26:59.102Z,28.70
2023-04-17T11:29:28.112Z,28.70
2023-04-17T11:31:57.949Z,28.90
2023-04-17T11:34:27.171Z,28.90
2023-04-17T11:36:58.287Z,29.00
2023-04-17T11:39:31.489Z,29.00
2023-04-17T11:42:00.254Z,29.00
2023-04-17T11:44:32.643Z,29.10
2023-04-17T11:47:02.302Z,29.20
2023-04-17T11:49:32.459Z,29.20
2023-04-17T11:52:02.148Z,29.30
2023-04-17T11:54:38.515Z,29.30
2023-04-17T11:57:11.395Z,29.50
2023-04-17T11:59:41.686Z,29.60
2023-04-17T12:02:10.515Z,29.50
2023-04-17T12:04:40.054Z,29.30
2023-04-17T12:07:09.259Z,29.20
2023-04-17T12:09:37.458Z,29.20
2023-04-17T12:12:07.902Z,29.20
2023-04-17T12:14:36.575Z,29.30
2023-04-17T12:17:04.742Z,29.30
2023-04-17T12:19:33.103Z,29.40
2023-04-17T12:22:01.228Z,29.30
2023-04-17T12:24:29.398Z,29.40
2023-04-17T12:26:57.702Z,29.40
2023-04-17T12:29:36.766Z,29.40
2023-04-17T12:32:11.223Z,29.50
2023-04-17T12:34:39.465Z,29.50
2023-04-17T12:37:07.687Z,29.60
2023-04-17T12:39:36.017Z,29.70
2023-04-17T12:42:04.347Z,29.70
2023-04-17T12:44:32.649Z,29.70
2023-04-17T12:47:00.880Z,29.80
2023-04-17T12:49:29.096Z,29.80
2023-04-17T12:51:57.520Z,29.80
2023-04-17T12:54:25.774Z,30.00
2023-04-17T12:56:54.419Z,30.10
2023-04-17T12:59:22.696Z,30.10
2023-04-17T13:01:51.105Z,30.30
2023-04-17T13:04:20.075Z,30.30
2023-04-17T13:06:48.944Z,30.40
2023-04-17T13:09:17.023Z,30.40
2023-04-17T13:11:45.257Z,30.40
2023-04-17T13:14:13.970Z,30.40
2023-04-17T13:16:42.365Z,30.40
2023-04-17T13:19:10.925Z,30.40
2023-04-17T13:21:39.474Z,30.40
2023-04-17T13:24:07.884Z,30.40
2023-04-17T13:26:37.294Z,30.40
2023-04-17T13:29:05.532Z,30.40
2023-04-17T13:31:33.887Z,30.30
2023-04-17T13:34:04.688Z,30.20
2023-04-17T13:36:33.148Z,30.20
2023-04-17T13:39:01.297Z,30.10
2023-04-17T13:41:29.519Z,30.10
2023-04-17T13:43:57.872Z,30.00
2023-04-17T13:46:26.117Z,29.90
2023-04-17T13:48:54.459Z,29.90
2023-04-17T13:51:22.821Z,29.90
2023-04-17T13:53:51.244Z,29.80
2023-04-17T13:56:19.407Z,29.90
2023-04-17T13:58:47.682Z,29.90
2023-04-17T14:01:16.130Z,30.00
2023-04-17T14:03:46.115Z,29.90
2023-04-17T14:06:15.238Z,30.00
2023-04-17T14:08:44.443Z,29.90
2023-04-17T14:11:13.450Z,30.00
2023-04-17T14:13:41.792Z,29.90
2023-04-17T14:16:10.128Z,30.00
2023-04-17T14:18:38.539Z,30.00
2023-04-17T14:21:07.019Z,30.00
2023-04-17T14:23:35.172Z,30.00
2023-04-17T14:26:03.492Z,30.00
2023-04-17T14:28:32.867Z,30.10
2023-04-17T14:31:01.335Z,30.20
2023-04-17T14:33:29.594Z,30.30
2023-04-17T14:35:58.163Z,30.40
2023-04-17T14:38:26.896Z,30.50
2023-04-17T14:40:55.267Z,30.60
2023-04-17T14:43:23.484Z,30.70
2023-04-17T14:45:51.732Z,30.70
2023-04-17T14:48:20.646Z,30.80
2023-04-17T14:50:48.968Z,30.80
2023-04-17T14:53:18.340Z,30.80
2023-04-17T14:55:47.982Z,30.70
2023-04-17T14:58:16.591Z,30.70
2023-04-17T15:00:44.989Z,30.60
2023-04-17T15:03:13.436Z,30.60
2023-04-17T15:05:41.789Z,30.60
2023-04-17T15:08:10.089Z,30.60
2023-04-17T15:10:50.382Z,30.70
2023-04-17T15:13:20.156Z,30.80
2023-04-17T15:15:48.294Z,30.70
2023-04-17T15:18:16.581Z,30.70
2023-04-17T15:20:44.884Z,30.70
2023-04-17T15:23:13.669Z,30.60
2023-04-17T15:25:41.902Z,30.70
2023-04-17T15:28:10.416Z,30.70
2023-04-17T15:30:38.586Z,30.70
2023-04-17T15:33:09.253Z,30.80
2023-04-17T15:35:39.333Z,30.80
2023-04-17T15:38:08.227Z,30.90
2023-04-17T15:40:36.565Z,31.00
2023-04-17T15:43:05.025Z,31.10
2023-04-17T15:45:33.284Z,31.30
2023-04-17T15:48:01.672Z,31.50
2023-04-17T15:50:30.367Z,31.50
2023-04-17T15:52:58.579Z,31.70
2023-04-17T15:55:26.909Z,31.70
2023-04-17T15:57:55.588Z,31.70
2023-04-17T16:00:23.755Z,31.90
2023-04-17T16:02:52.576Z,32.10
2023-04-17T16:05:21.724Z,31.90
2023-04-17T16:07:49.931Z,31.80
2023-04-17T16:10:18.432Z,32.00
2023-04-17T16:12:47.286Z,32.10
2023-04-17T16:15:18.861Z,31.90
2023-04-17T16:17:46.782Z,31.70
2023-04-17T16:20:15.100Z,31.50
2023-04-17T16:22:43.473Z,31.50
2023-04-17T16:25:11.592Z,31.70
2023-04-17T16:27:39.929Z,31.50
2023-04-17T16:30:09.440Z,31.50
2023-04-17T16:32:40.163Z,31.80
2023-04-17T16:35:08.851Z,32.20
2023-04-17T16:37:37.022Z,32.50
2023-04-17T16:40:05.702Z,32.60
2023-04-17T16:42:34.279Z,32.90
2023-04-17T16:45:02.416Z,33.10
2023-04-17T16:47:31.129Z,33.60
2023-04-17T16:49:59.592Z,34.10
2023-04-17T16:52:27.847Z,34.10
2023-04-17T16:54:56.113Z,34.30
2023-04-17T16:57:24.255Z,34.40
2023-04-17T16:59:52.448Z,34.50
2023-04-17T17:02:20.833Z,34.40
2023-04-17T17:04:50.032Z,34.20
2023-04-17T17:07:18.154Z,34.40
2023-04-17T17:09:46.542Z,34.30
2023-04-17T17:12:14.665Z,34.50
2023-04-17T17:14:42.829Z,34.70
2023-04-17T17:17:10.974Z,34.60
2023-04-17T17:19:41.909Z,34.20
2023-04-17T17:22:10.165Z,34.30
2023-04-17T17:24:38.406Z,34.50
2023-04-17T17:27:06.713Z,34.60
2023-04-17T17:29:35.029Z,34.70
2023-04-17T17:32:03.461Z,34.50
2023-04-17T17:34:32.595Z,34.60
2023-04-17T17:37:00.827Z,34.50
2023-04-17T17:39:29.185Z,34.40
2023-04-17T17:41:57.269Z,34.20
2023-04-17T17:44:25.502Z,34.10
2023-04-17T17:46:53.749Z,33.90
2023-04-17T17:49:23.323Z,33.70
2023-04-17T17:51:51.477Z,33.70
2023-04-17T17:54:19.874Z,33.50
2023-04-17T17:56:47.952Z,33.40
2023-04-17T17:59:16.280Z,33.40
2023-04-17T18:01:44.527Z,33.40
2023-04-17T18:04:13.374Z,33.10
2023-04-17T18:06:41.803Z,33.00
2023-04-17T18:09:10.150Z,32.80
2023-04-17T18:11:38.576Z,32.40
2023-04-17T18:14:06.825Z,32.40
2023-04-17T18:16:35.097Z,32.10
2023-04-17T18:19:03.764Z,31.90
2023-04-17T18:21:32.580Z,31.70
2023-04-17T18:24:01.293Z,31.50
2023-04-17T18:26:29.692Z,31.20
2023-04-17T18:28:57.886Z,31.10
2023-04-17T18:31:26.411Z,30.90
2023-04-17T18:33:55.057Z,30.70
2023-04-17T18:36:23.152Z,30.50
2023-04-17T18:38:51.468Z,30.40
2023-04-17T18:41:19.717Z,30.10
2023-04-17T18:43:48.314Z,30.00
2023-04-17T18:46:16.529Z,29.90
2023-04-17T18:48:44.789Z,29.70
2023-04-17T18:51:13.820Z,29.60
2023-04-17T18:53:42.129Z,29.50
2023-04-17T18:56:10.223Z,29.40
2023-04-17T18:58:38.450Z,29.30
2023-04-17T19:01:07.404Z,29.30
2023-04-17T19:03:35.568Z,29.20
2023-04-17T19:06:04.083Z,29.10
2023-04-17T19:08:32.361Z,29.10
2023-04-17T19:11:00.546Z,29.00
2023-04-17T19:13:29.030Z,29.00
2023-04-17T19:15:57.239Z,28.90
2023-04-17T19:18:25.573Z,28.80
2023-04-17T19:20:53.983Z,28.80
2023-04-17T19:23:22.106Z,28.80
2023-04-17T19:25:53.764Z,28.80
2023-04-17T19:28:22.992Z,28.70
2023-04-17T19:30:51.076Z,28.70
2023-04-17T19:33:19.382Z,28.70
2023-04-17T19:35:47.550Z,28.60
2023-04-17T19:38:17.345Z,28.60
2023-04-17T19:41:11.097Z,28.60
2023-04-17T19:43:39.403Z,28.60
2023-04-17T19:46:07.518Z,28.50
2023-04-17T19:48:36.304Z,28.50
2023-04-17T19:51:06.782Z,28.40
2023-04-17T19:53:36.747Z,28.40
2023-04-17T19:56:08.342Z,28.40
2023-04-17T19:58:38.096Z,28.40
2023-04-17T20:01:06.568Z,28.40
2023-04-17T20:03:35.034Z,28.30
2023-04-17T20:06:06.596Z,28.30
2023-04-17T20:08:35.118Z,28.30
2023-04-17T20:11:03.359Z,28.30
2023-04-17T20:13:31.621Z,28.30
2023-04-17T20:16:00.030Z,28.20
2023-04-17T20:18:28.510Z,28.30
2023-04-17T20:20:56.794Z,28.20
2023-04-17T20:23:27.592Z,28.20
2023-04-17T20:25:56.076Z,28.20
2023-04-17T20:28:24.203Z,28.20
2023-04-17T20:30:52.442Z,28.20
2023-04-17T20:33:20.840Z,28.10
2023-04-17T20:35:49.247Z,28.10
2023-04-17T20:38:17.387Z,28.10
2023-04-17T20:40:45.690Z,28.10
2023-04-17T20:43:13.859Z,28.10
2023-04-17T20:45:42.015Z,28.10
2023-04-17T20:48:10.305Z,28.10
2023-04-17T20:50:38.598Z,28.10
2023-04-17T20:53:06.669Z,28.10
2023-04-17T20:55:36.776Z,28.10
2023-04-17T20:58:05.155Z,28.10
2023-04-17T21:00:33.813Z,28.10
2023-04-17T21:03:02.779Z,28.10
2023-04-17T21:05:31.228Z,28.00
2023-04-17T21:07:59.440Z,28.00
2023-04-17T21:10:27.687Z,28.00
2023-04-17T21:12:55.898Z,28.00
2023-04-17T21:15:24.309Z,28.00
2023-04-17T21:17:52.562Z,28.00
2023-04-17T21:20:20.926Z,28.00
2023-04-17T21:22:49.606Z,28.00
2023-04-17T21:25:17.996Z,27.90
2023-04-17T21:27:46.214Z,27.90
2023-04-17T21:30:14.705Z,27.90
2023-04-17T21:32:43.172Z,27.90
2023-04-17T21:35:11.280Z,27.90
2023-04-17T21:37:39.544Z,28.00
2023-04-17T21:40:08.486Z,27.90
2023-04-17T21:42:36.752Z,28.00
2023-04-17T21:45:05.286Z,27.90
2023-04-17T21:47:34.151Z,27.90
2023-04-17T21:50:02.367Z,28.00
2023-04-17T21:52:30.552Z,27.90
2023-04-17T21:54:58.740Z,27.90
2023-04-17T21:57:27.023Z,27.90
2023-04-17T21:59:55.225Z,27.90
2023-04-17T22:02:23.561Z,27.90
2023-04-17T22:04:52.310Z,27.80
2023-04-17T22:07:20.622Z,27.80
2023-04-17T22:09:49.170Z,27.80
2023-04-17T22:12:17.990Z,27.80
2023-04-17T22:14:46.215Z,27.80
2023-04-17T22:17:14.891Z,27.80
2023-04-17T22:19:43.608Z,27.80
2023-04-17T22:22:11.947Z,27.80
2023-04-17T22:24:41.501Z,27.80
2023-04-17T22:27:10.081Z,27.80
2023-04-17T22:29:38.176Z,27.80
2023-04-17T22:32:06.523Z,27.80
2023-04-17T22:34:34.750Z,27.80
2023-04-17T22:37:03.202Z,27.80
2023-04-17T22:39:31.260Z,27.80
2023-04-17T22:41:59.634Z,27.70
2023-04-17T22:44:27.722Z,27.80
2023-04-17T22:46:56.096Z,27.80
2023-04-17T22:49:24.376Z,27.80
2023-04-17T22:51:53.289Z,27.80
2023-04-17T22:54:23.127Z,27.70
2023-04-17T22:56:51.943Z,27.70
2023-04-17T22:59:20.107Z,27.70
2023-04-17T23:01:48.363Z,27.70
2023-04-17T23:04:16.615Z,27.70
2023-04-17T23:06:44.962Z,27.70
2023-04-17T23:09:13.117Z,27.70
2023-04-17T23:11:41.605Z,27.70
2023-04-17T23:14:09.650Z,27.70
2023-04-17T23:16:37.959Z,27.70
2023-04-17T23:19:06.129Z,27.70
2023-04-17T23:21:36.544Z,27.70
2023-04-17T23:24:04.913Z,27.70
2023-04-17T23:26:33.063Z,27.70
2023-04-17T23:29:01.236Z,27.60
2023-04-17T23:31:29.356Z,27.60
2023-04-17T23:33:57.766Z,27.60
2023-04-17T23:36:25.803Z,27.60
2023-04-17T23:38:54.000Z,27.60
2023-04-17T23:41:22.268Z,27.60
2023-04-17T23:43:50.545Z,27.60
2023-04-17T23:46:18.635Z,27.60
2023-04-17T23:48:46.943Z,27.60
2023-04-17T23:51:15.013Z,27.60
2023-04-17T23:53:43.401Z,27.60
2023-04-17T23:56:11.552Z,27.60
2023-04-17T23:58:39.777Z,27.60
